^^
Marion, Virginia Banner
 

Adwolf, VA. Station Historical Data
[ Providing Data Since 6/07/2007 ]
Station Historical Data
 
Daily Summary for June 22, 2017 Units:  Both    English   Metric
« Previous Day
Next Day »
Daily Weekly Monthly Yearly Custom
  Current: High: Low: Average:
Temperature: 71.9 °F /  22.2 °C 77.1 °F /  25.1 °C 62.2 °F /  16.8 °C 67.5 °F /  19.7 °C
Dew Point: 67.4 °F /  19.7 °C 69.0 °F /  20.6 °C 60.4 °F /  15.8 °C 63.9 °F /  17.7 °C
Humidity: 86% 95% 75% 89%
Wind Speed: 8.1mph /  13km/h 11.5mph /  18.5km/h - 1.9mph /  3.1km/h
Wind Gust: 8.1mph /  13km/h 11.5mph /  18.5km/h - -
WindSSW - - SSE
Pressure: 30.22 in /  1023.2 hPa 30.23 in /  1023.6 hPa 30.20 in /  1022.6 hPa -
Precipitation: 0.01 in /  0.25 mm      
Historical Graphs
 
 
Tabular Data for June 22, 2017
Time Temperature Dew Point Pressure Wind Wind Speed Wind Gust Humidity Rainfall Rate (Hourly) solar Conditions
00:01 65.6 °F /  18.7 °C 62.9 °F /  17.2 °C 30.20in /  1022.6hPa Calm     91% 0.00in /  0mm WeatherDisplay:10.37 W/m2 RA
00:06 65.5 °F /  18.6 °C 62.8 °F /  17.1 °C 30.21in /  1022.9hPa Calm     91% 0.00in /  0mm WeatherDisplay:10.37 W/m2 RA
00:11 65.5 °F /  18.6 °C 63.1 °F /  17.3 °C 30.21in /  1022.9hPa Calm     92% 0.00in /  0mm WeatherDisplay:10.37 W/m2 CLR
00:16 65.4 °F /  18.6 °C 63.0 °F /  17.2 °C 30.21in /  1022.9hPa Calm     92% 0.00in /  0mm WeatherDisplay:10.37 W/m2 CLR
00:21 65.2 °F /  18.4 °C 62.8 °F /  17.1 °C 30.21in /  1022.9hPa Calm     92% 0.00in /  0mm WeatherDisplay:10.37 W/m2 CLR
00:26 65.1 °F /  18.4 °C 62.7 °F /  17.1 °C 30.21in /  1022.9hPa Calm     92% 0.00in /  0mm WeatherDisplay:10.37 W/m2 CLR
00:27 65.0 °F /  18.3 °C 62.6 °F /  17 °C 30.21in /  1022.9hPa Calm     92% 0.00in /  0mm WeatherDisplay:10.37 W/m2 CLR
00:32 64.9 °F /  18.3 °C 62.5 °F /  16.9 °C 30.21in /  1022.9hPa Calm     92% 0.00in /  0mm WeatherDisplay:10.37 W/m2 CLR
00:37 64.8 °F /  18.2 °C 62.4 °F /  16.9 °C 30.21in /  1022.9hPa Calm     92% 0.00in /  0mm WeatherDisplay:10.37 W/m2 CLR
00:42 64.7 °F /  18.2 °C 62.6 °F /  17 °C 30.21in /  1022.9hPa Calm     93% 0.00in /  0mm WeatherDisplay:10.37 W/m2 CLR
00:47 64.6 °F /  18.1 °C 62.5 °F /  16.9 °C 30.21in /  1022.9hPa Calm     93% 0.00in /  0mm WeatherDisplay:10.37 W/m2 CLR
00:52 64.5 °F /  18.1 °C 62.4 °F /  16.9 °C 30.21in /  1022.9hPa Calm     93% 0.00in /  0mm WeatherDisplay:10.37 W/m2 CLR
00:57 64.4 °F /  18 °C 62.3 °F /  16.8 °C 30.21in /  1022.9hPa Calm     93% 0.00in /  0mm WeatherDisplay:10.37 W/m2 CLR
01:02 64.4 °F /  18 °C 62.3 °F /  16.8 °C 30.21in /  1022.9hPa Calm     93% 0.00in /  0mm WeatherDisplay:10.37 W/m2 CLR
01:07 64.3 °F /  17.9 °C 62.2 °F /  16.8 °C 30.21in /  1022.9hPa Calm     93% 0.00in /  0mm WeatherDisplay:10.37 W/m2 CLR
01:12 64.2 °F /  17.9 °C 62.1 °F /  16.7 °C 30.21in /  1022.9hPa Calm     93% 0.00in /  0mm WeatherDisplay:10.37 W/m2 CLR
01:17 64.1 °F /  17.8 °C 62.0 °F /  16.7 °C 30.21in /  1022.9hPa Calm     93% 0.00in /  0mm WeatherDisplay:10.37 W/m2 CLR
01:22 64.0 °F /  17.8 °C 61.9 °F /  16.6 °C 30.21in /  1022.9hPa Calm     93% 0.00in /  0mm WeatherDisplay:10.37 W/m2 CLR
01:27 63.9 °F /  17.7 °C 61.8 °F /  16.6 °C 30.20in /  1022.6hPa Calm     93% 0.00in /  0mm WeatherDisplay:10.37 W/m2 CLR
01:32 63.8 °F /  17.7 °C 61.7 °F /  16.5 °C 30.20in /  1022.6hPa Calm     93% 0.00in /  0mm WeatherDisplay:10.37 W/m2 CLR
01:37 63.8 °F /  17.7 °C 61.7 °F /  16.5 °C 30.20in /  1022.6hPa Calm     93% 0.00in /  0mm WeatherDisplay:10.37 W/m2 CLR
01:42 63.7 °F /  17.6 °C 61.9 °F /  16.6 °C 30.20in /  1022.6hPa Calm     94% 0.00in /  0mm WeatherDisplay:10.37 W/m2 CLR
01:47 63.6 °F /  17.6 °C 61.8 °F /  16.6 °C 30.20in /  1022.6hPa Calm     94% 0.00in /  0mm WeatherDisplay:10.37 W/m2 CLR
01:52 63.5 °F /  17.5 °C 61.7 °F /  16.5 °C 30.20in /  1022.6hPa Calm     94% 0.00in /  0mm WeatherDisplay:10.37 W/m2 CLR
01:57 63.4 °F /  17.4 °C 61.6 °F /  16.4 °C 30.20in /  1022.6hPa Calm     94% 0.00in /  0mm WeatherDisplay:10.37 W/m2 CLR
02:02 63.3 °F /  17.4 °C 61.2 °F /  16.2 °C 30.20in /  1022.6hPa Calm     93% 0.00in /  0mm WeatherDisplay:10.37 W/m2 CLR
02:07 63.3 °F /  17.4 °C 61.5 °F /  16.4 °C 30.20in /  1022.6hPa Calm     94% 0.00in /  0mm WeatherDisplay:10.37 W/m2 CLR
02:12 63.2 °F /  17.3 °C 61.4 °F /  16.3 °C 30.20in /  1022.6hPa Calm     94% 0.00in /  0mm WeatherDisplay:10.37 W/m2 CLR
02:17 63.2 °F /  17.3 °C 61.4 °F /  16.3 °C 30.20in /  1022.6hPa Calm     94% 0.00in /  0mm WeatherDisplay:10.37 W/m2 CLR
02:22 63.1 °F /  17.3 °C 61.3 °F /  16.3 °C 30.20in /  1022.6hPa Calm     94% 0.00in /  0mm WeatherDisplay:10.37 W/m2 CLR
02:27 63.1 °F /  17.3 °C 61.3 °F /  16.3 °C 30.20in /  1022.6hPa Calm     94% 0.00in /  0mm WeatherDisplay:10.37 W/m2 CLR
02:32 63.0 °F /  17.2 °C 61.2 °F /  16.2 °C 30.20in /  1022.6hPa Calm     94% 0.00in /  0mm WeatherDisplay:10.37 W/m2 CLR
02:37 62.9 °F /  17.2 °C 61.1 °F /  16.2 °C 30.20in /  1022.6hPa Calm     94% 0.00in /  0mm WeatherDisplay:10.37 W/m2 CLR
02:42 62.9 °F /  17.2 °C 61.1 °F /  16.2 °C 30.20in /  1022.6hPa Calm     94% 0.00in /  0mm WeatherDisplay:10.37 W/m2 CLR
02:47 62.9 °F /  17.2 °C 61.1 °F /  16.2 °C 30.20in /  1022.6hPa NNW 2.3mph /  3.7km/h 2.3mph /  3.7km/h 94% 0.00in /  0mm WeatherDisplay:10.37 W/m2 CLR
02:52 62.8 °F /  17.1 °C 61.0 °F /  16.1 °C 30.20in /  1022.6hPa Calm     94% 0.00in /  0mm WeatherDisplay:10.37 W/m2 CLR
02:57 62.8 °F /  17.1 °C 61.0 °F /  16.1 °C 30.20in /  1022.6hPa Calm     94% 0.00in /  0mm WeatherDisplay:10.37 W/m2 CLR
03:02 62.8 °F /  17.1 °C 61.0 °F /  16.1 °C 30.20in /  1022.6hPa Calm     94% 0.00in /  0mm WeatherDisplay:10.37 W/m2 CLR
03:07 62.7 °F /  17.1 °C 60.9 °F /  16.1 °C 30.21in /  1022.9hPa NNW 1.2mph /  1.9km/h 1.2mph /  1.9km/h 94% 0.00in /  0mm WeatherDisplay:10.37 W/m2 CLR
03:12 62.6 °F /  17 °C 60.8 °F /  16 °C 30.21in /  1022.9hPa Calm     94% 0.00in /  0mm WeatherDisplay:10.37 W/m2 CLR
03:17 62.6 °F /  17 °C 60.8 °F /  16 °C 30.21in /  1022.9hPa Calm     94% 0.00in /  0mm WeatherDisplay:10.37 W/m2 CLR
03:22 62.5 °F /  16.9 °C 60.7 °F /  15.9 °C 30.21in /  1022.9hPa Calm     94% 0.00in /  0mm WeatherDisplay:10.37 W/m2 CLR
03:27 62.5 °F /  16.9 °C 60.7 °F /  15.9 °C 30.21in /  1022.9hPa Calm     94% 0.00in /  0mm WeatherDisplay:10.37 W/m2 CLR
03:32 62.5 °F /  16.9 °C 60.7 °F /  15.9 °C 30.20in /  1022.6hPa Calm     94% 0.00in /  0mm WeatherDisplay:10.37 W/m2 CLR
03:37 62.6 °F /  17 °C 61.1 °F /  16.2 °C 30.20in /  1022.6hPa Calm     95% 0.00in /  0mm WeatherDisplay:10.37 W/m2 CLR
03:42 62.6 °F /  17 °C 61.1 °F /  16.2 °C 30.20in /  1022.6hPa Calm     95% 0.00in /  0mm WeatherDisplay:10.37 W/m2 CLR
03:47 62.5 °F /  16.9 °C 61.0 °F /  16.1 °C 30.20in /  1022.6hPa Calm     95% 0.00in /  0mm WeatherDisplay:10.37 W/m2 CLR
03:52 62.5 °F /  16.9 °C 60.7 °F /  15.9 °C 30.21in /  1022.9hPa Calm     94% 0.00in /  0mm WeatherDisplay:10.37 W/m2 CLR
03:57 62.4 °F /  16.9 °C 60.6 °F /  15.9 °C 30.21in /  1022.9hPa Calm     94% 0.00in /  0mm WeatherDisplay:10.37 W/m2 CLR
04:02 62.5 °F /  16.9 °C 60.7 °F /  15.9 °C 30.20in /  1022.6hPa Calm     94% 0.00in /  0mm WeatherDisplay:10.37 W/m2 CLR
04:08 62.5 °F /  16.9 °C 60.7 °F /  15.9 °C 30.20in /  1022.6hPa Calm     94% 0.00in /  0mm WeatherDisplay:10.37 W/m2 CLR
04:13 62.4 °F /  16.9 °C 60.6 °F /  15.9 °C 30.20in /  1022.6hPa Calm     94% 0.00in /  0mm WeatherDisplay:10.37 W/m2 CLR
04:18 62.4 °F /  16.9 °C 60.6 °F /  15.9 °C 30.21in /  1022.9hPa Calm     94% 0.00in /  0mm WeatherDisplay:10.37 W/m2 CLR
04:23 62.4 °F /  16.9 °C 60.6 °F /  15.9 °C 30.20in /  1022.6hPa Calm     94% 0.00in /  0mm WeatherDisplay:10.37 W/m2 CLR
04:28 62.4 °F /  16.9 °C 60.6 °F /  15.9 °C 30.21in /  1022.9hPa Calm     94% 0.00in /  0mm WeatherDisplay:10.37 W/m2 CLR
04:33 62.4 °F /  16.9 °C 60.6 °F /  15.9 °C 30.21in /  1022.9hPa Calm     94% 0.00in /  0mm WeatherDisplay:10.37 W/m2 CLR
04:38 62.4 °F /  16.9 °C 60.6 °F /  15.9 °C 30.21in /  1022.9hPa Calm     94% 0.00in /  0mm WeatherDisplay:10.37 W/m2 CLR
04:43 62.3 °F /  16.8 °C 60.5 °F /  15.8 °C 30.21in /  1022.9hPa Calm     94% 0.00in /  0mm WeatherDisplay:10.37 W/m2 CLR
04:48 62.2 °F /  16.8 °C 60.4 °F /  15.8 °C 30.21in /  1022.9hPa Calm     94% 0.00in /  0mm WeatherDisplay:10.37 W/m2 CLR
04:53 62.2 °F /  16.8 °C 60.4 °F /  15.8 °C 30.21in /  1022.9hPa Calm     94% 0.00in /  0mm WeatherDisplay:10.37 W/m2 CLR
04:58 62.2 °F /  16.8 °C 60.4 °F /  15.8 °C 30.21in /  1022.9hPa Calm     94% 0.00in /  0mm WeatherDisplay:10.37 W/m2 CLR
05:03 62.2 °F /  16.8 °C 60.4 °F /  15.8 °C 30.21in /  1022.9hPa Calm     94% 0.00in /  0mm WeatherDisplay:10.37 W/m2 CLR
05:08 62.3 °F /  16.8 °C 60.8 °F /  16 °C 30.21in /  1022.9hPa Calm     95% 0.00in /  0mm WeatherDisplay:10.37 W/m2 CLR
05:13 62.3 °F /  16.8 °C 60.8 °F /  16 °C 30.21in /  1022.9hPa Calm     95% 0.00in /  0mm WeatherDisplay:10.37 W/m2 CLR
05:18 62.5 °F /  16.9 °C 61.0 °F /  16.1 °C 30.21in /  1022.9hPa Calm     95% 0.00in /  0mm WeatherDisplay:10.37 W/m2 CLR
05:23 62.6 °F /  17 °C 61.1 °F /  16.2 °C 30.21in /  1022.9hPa Calm     95% 0.00in /  0mm WeatherDisplay:10.37 W/m2 CLR
05:28 62.6 °F /  17 °C 61.1 °F /  16.2 °C 30.21in /  1022.9hPa Calm     95% 0.00in /  0mm WeatherDisplay:10.37 W/m2 CLR
05:33 62.7 °F /  17.1 °C 61.2 °F /  16.2 °C 30.21in /  1022.9hPa Calm     95% 0.00in /  0mm WeatherDisplay:10.37 W/m2 CLR
05:43 62.6 °F /  17 °C 60.8 °F /  16 °C 30.21in /  1022.9hPa Calm     94% 0.01in /  0.25mm WeatherDisplay:10.37 W/m2 RA
05:48 62.5 °F /  16.9 °C 60.7 °F /  15.9 °C 30.21in /  1022.9hPa Calm     94% 0.01in /  0.25mm WeatherDisplay:10.37 W/m2 RA
05:53 62.4 °F /  16.9 °C 60.6 °F /  15.9 °C 30.21in /  1022.9hPa Calm     94% 0.01in /  0.25mm WeatherDisplay:10.37 W/m2 CLR
05:58 62.3 °F /  16.8 °C 60.5 °F /  15.8 °C 30.21in /  1022.9hPa Calm     94% 0.01in /  0.25mm WeatherDisplay:10.37 W/m2 CLR
06:03 62.2 °F /  16.8 °C 60.4 °F /  15.8 °C 30.21in /  1022.9hPa Calm     94% 0.01in /  0.25mm WeatherDisplay:10.37 W/m2 CLR
06:08 62.3 °F /  16.8 °C 60.5 °F /  15.8 °C 30.21in /  1022.9hPa Calm     94% 0.01in /  0.25mm WeatherDisplay:10.37 W/m2 CLR
06:13 62.3 °F /  16.8 °C 60.5 °F /  15.8 °C 30.21in /  1022.9hPa Calm     94% 0.01in /  0.25mm WeatherDisplay:10.37 W/m2 CLR
06:18 62.4 °F /  16.9 °C 60.9 °F /  16.1 °C 30.21in /  1022.9hPa Calm     95% 0.01in /  0.25mm WeatherDisplay:10.37 W/m2 CLR
06:23 62.4 °F /  16.9 °C 60.9 °F /  16.1 °C 30.20in /  1022.6hPa ENE 3.5mph /  5.6km/h 3.5mph /  5.6km/h 95% 0.01in /  0.25mm WeatherDisplay:10.37 W/m2 CLR
06:28 62.4 °F /  16.9 °C 60.9 °F /  16.1 °C 30.21in /  1022.9hPa ENE 1.2mph /  1.9km/h 1.2mph /  1.9km/h 95% 0.01in /  0.25mm WeatherDisplay:10.37 W/m2 CLR
06:33 62.5 °F /  16.9 °C 61.0 °F /  16.1 °C 30.21in /  1022.9hPa ENE 1.2mph /  1.9km/h   95% 0.01in /  0.25mm WeatherDisplay:10.37 W/m2 CLR
06:38 62.6 °F /  17 °C 60.8 °F /  16 °C 30.21in /  1022.9hPa ENE 1.2mph /  1.9km/h 1.2mph /  1.9km/h 94% 0.01in /  0.25mm WeatherDisplay:10.37 W/m2 CLR
06:43 62.6 °F /  17 °C 60.8 °F /  16 °C 30.21in /  1022.9hPa Calm     94% 0.00in /  0mm WeatherDisplay:10.37 W/m2 CLR
06:48 62.7 °F /  17.1 °C 60.9 °F /  16.1 °C 30.21in /  1022.9hPa Calm     94% 0.00in /  0mm WeatherDisplay:10.37 W/m2 CLR
06:53 62.7 °F /  17.1 °C 60.9 °F /  16.1 °C 30.21in /  1022.9hPa Calm     94% 0.00in /  0mm WeatherDisplay:10.37 W/m2 CLR
06:58 62.8 °F /  17.1 °C 61.0 °F /  16.1 °C 30.21in /  1022.9hPa ENE 2.0mph /  3.2km/h 2.0mph /  3.2km/h 94% 0.00in /  0mm WeatherDisplay:10.37 W/m2 CLR
07:03 62.9 °F /  17.2 °C 61.1 °F /  16.2 °C 30.21in /  1022.9hPa ENE 2.3mph /  3.7km/h 2.3mph /  3.7km/h 94% 0.00in /  0mm WeatherDisplay:10.37 W/m2 CLR
07:08 62.9 °F /  17.2 °C 61.1 °F /  16.2 °C 30.21in /  1022.9hPa ENE 1.2mph /  1.9km/h 1.2mph /  1.9km/h 94% 0.00in /  0mm WeatherDisplay:10.37 W/m2 CLR
07:13 62.9 °F /  17.2 °C 61.1 °F /  16.2 °C 30.21in /  1022.9hPa Calm     94% 0.00in /  0mm WeatherDisplay:10.37 W/m2 CLR
07:18 63.0 °F /  17.2 °C 61.5 °F /  16.4 °C 30.21in /  1022.9hPa ENE 1.2mph /  1.9km/h 1.2mph /  1.9km/h 95% 0.00in /  0mm WeatherDisplay:10.37 W/m2 CLR
07:23 63.1 °F /  17.3 °C 61.3 °F /  16.3 °C 30.21in /  1022.9hPa ENE 1.2mph /  1.9km/h 1.2mph /  1.9km/h 94% 0.00in /  0mm WeatherDisplay:10.37 W/m2 CLR
07:28 63.3 °F /  17.4 °C 61.5 °F /  16.4 °C 30.21in /  1022.9hPa ENE 2.3mph /  3.7km/h 2.3mph /  3.7km/h 94% 0.00in /  0mm WeatherDisplay:10.37 W/m2 CLR
07:33 63.4 °F /  17.4 °C 61.6 °F /  16.4 °C 30.21in /  1022.9hPa ENE 1.2mph /  1.9km/h 1.2mph /  1.9km/h 94% 0.00in /  0mm WeatherDisplay:10.37 W/m2 CLR
07:38 63.6 °F /  17.6 °C 61.8 °F /  16.6 °C 30.21in /  1022.9hPa ENE 2.3mph /  3.7km/h 2.3mph /  3.7km/h 94% 0.00in /  0mm WeatherDisplay:10.37 W/m2 CLR
07:48 64.0 °F /  17.8 °C 62.2 °F /  16.8 °C 30.21in /  1022.9hPa ENE 1.2mph /  1.9km/h 1.2mph /  1.9km/h 94% 0.00in /  0mm WeatherDisplay:10.37 W/m2 CLR
07:53 64.2 °F /  17.9 °C 62.4 °F /  16.9 °C 30.22in /  1023.2hPa ENE 2.3mph /  3.7km/h 2.3mph /  3.7km/h 94% 0.00in /  0mm WeatherDisplay:10.37 W/m2 CLR
07:58 64.4 °F /  18 °C 62.6 °F /  17 °C 30.21in /  1022.9hPa ENE 1.0mph /  1.6km/h 1.0mph /  1.6km/h 94% 0.00in /  0mm WeatherDisplay:10.37 W/m2 CLR
08:03 64.6 °F /  18.1 °C 62.8 °F /  17.1 °C 30.21in /  1022.9hPa ENE 1.2mph /  1.9km/h 1.2mph /  1.9km/h 94% 0.00in /  0mm WeatherDisplay:10.37 W/m2 CLR
08:08 64.8 °F /  18.2 °C 63.0 °F /  17.2 °C 30.21in /  1022.9hPa ENE 2.3mph /  3.7km/h 2.3mph /  3.7km/h 94% 0.00in /  0mm WeatherDisplay:10.37 W/m2 CLR
08:13 65.0 °F /  18.3 °C 63.2 °F /  17.3 °C 30.22in /  1023.2hPa Calm   0.2mph /  0.3km/h 94% 0.00in /  0mm WeatherDisplay:10.37 W/m2 CLR
08:18 65.2 °F /  18.4 °C 63.1 °F /  17.3 °C 30.22in /  1023.2hPa ENE 2.3mph /  3.7km/h 2.3mph /  3.7km/h 93% 0.00in /  0mm WeatherDisplay:10.37 W/m2 CLR
08:23 65.4 °F /  18.6 °C 63.3 °F /  17.4 °C 30.22in /  1023.2hPa ENE 1.2mph /  1.9km/h 1.2mph /  1.9km/h 93% 0.00in /  0mm WeatherDisplay:10.37 W/m2 CLR
08:28 65.8 °F /  18.8 °C 63.4 °F /  17.4 °C 30.22in /  1023.2hPa ENE 2.3mph /  3.7km/h 2.3mph /  3.7km/h 92% 0.00in /  0mm WeatherDisplay:10.37 W/m2 CLR
08:33 65.9 °F /  18.8 °C 63.5 °F /  17.5 °C 30.22in /  1023.2hPa ENE 2.3mph /  3.7km/h 2.3mph /  3.7km/h 92% 0.00in /  0mm WeatherDisplay:10.37 W/m2 CLR
08:38 66.1 °F /  18.9 °C 63.7 °F /  17.6 °C 30.22in /  1023.2hPa ENE 1.2mph /  1.9km/h 1.2mph /  1.9km/h 92% 0.00in /  0mm WeatherDisplay:10.37 W/m2 CLR
08:43 66.4 °F /  19.1 °C 64.0 °F /  17.8 °C 30.22in /  1023.2hPa ENE 2.3mph /  3.7km/h 2.3mph /  3.7km/h 92% 0.00in /  0mm WeatherDisplay:10.37 W/m2 CLR
08:48 66.7 °F /  19.3 °C 64.3 °F /  17.9 °C 30.22in /  1023.2hPa ENE 3.5mph /  5.6km/h 3.5mph /  5.6km/h 92% 0.00in /  0mm WeatherDisplay:10.37 W/m2 CLR
08:53 67.0 °F /  19.4 °C 64.2 °F /  17.9 °C 30.22in /  1023.2hPa ENE 3.5mph /  5.6km/h 3.5mph /  5.6km/h 91% 0.00in /  0mm WeatherDisplay:10.37 W/m2 CLR
08:58 67.2 °F /  19.6 °C 64.4 °F /  18 °C 30.22in /  1023.2hPa ENE 1.2mph /  1.9km/h 1.2mph /  1.9km/h 91% 0.00in /  0mm WeatherDisplay:10.37 W/m2 CLR
09:03 67.5 °F /  19.7 °C 64.7 °F /  18.2 °C 30.22in /  1023.2hPa ENE 2.3mph /  3.7km/h 2.3mph /  3.7km/h 91% 0.00in /  0mm WeatherDisplay:10.37 W/m2 CLR
09:08 67.9 °F /  19.9 °C 65.1 °F /  18.4 °C 30.22in /  1023.2hPa ENE 2.3mph /  3.7km/h 2.3mph /  3.7km/h 91% 0.00in /  0mm WeatherDisplay:10.37 W/m2 CLR
09:13 68.4 °F /  20.2 °C 65.6 °F /  18.7 °C 30.22in /  1023.2hPa ENE 1.0mph /  1.6km/h 1.0mph /  1.6km/h 91% 0.00in /  0mm WeatherDisplay:10.37 W/m2 CLR
09:18 69.0 °F /  20.6 °C 65.9 °F /  18.8 °C 30.22in /  1023.2hPa ENE 2.0mph /  3.2km/h 2.0mph /  3.2km/h 90% 0.00in /  0mm WeatherDisplay:10.37 W/m2 CLR
09:23 69.4 °F /  20.8 °C 65.7 °F /  18.7 °C 30.22in /  1023.2hPa ENE 2.3mph /  3.7km/h 2.3mph /  3.7km/h 88% 0.00in /  0mm WeatherDisplay:10.37 W/m2 CLR
09:28 69.8 °F /  21 °C 66.0 °F /  18.9 °C 30.22in /  1023.2hPa ENE 1.2mph /  1.9km/h 1.2mph /  1.9km/h 88% 0.00in /  0mm WeatherDisplay:10.37 W/m2 CLR
09:33 70.3 °F /  21.3 °C 66.2 °F /  19 °C 30.22in /  1023.2hPa ENE 2.3mph /  3.7km/h 2.3mph /  3.7km/h 87% 0.00in /  0mm WeatherDisplay:10.37 W/m2 CLR
09:38 70.6 °F /  21.4 °C 66.2 °F /  19 °C 30.22in /  1023.2hPa ENE 2.3mph /  3.7km/h 2.3mph /  3.7km/h 86% 0.00in /  0mm WeatherDisplay:10.37 W/m2 CLR
09:43 71.1 °F /  21.7 °C 66.7 °F /  19.3 °C 30.22in /  1023.2hPa ENE 1.2mph /  1.9km/h 1.2mph /  1.9km/h 86% 0.00in /  0mm WeatherDisplay:10.37 W/m2 CLR
09:48 71.6 °F /  22 °C 66.5 °F /  19.2 °C 30.22in /  1023.2hPa ENE 1.2mph /  1.9km/h 1.2mph /  1.9km/h 84% 0.00in /  0mm WeatherDisplay:10.37 W/m2 CLR
09:53 71.9 °F /  22.2 °C 66.8 °F /  19.3 °C 30.22in /  1023.2hPa ENE 2.3mph /  3.7km/h 2.3mph /  3.7km/h 84% 0.00in /  0mm WeatherDisplay:10.37 W/m2 CLR
09:58 72.2 °F /  22.3 °C 67.1 °F /  19.5 °C 30.22in /  1023.2hPa ENE 1.0mph /  1.6km/h   84% 0.00in /  0mm WeatherDisplay:10.37 W/m2 CLR
10:03 72.8 °F /  22.7 °C 67.3 °F /  19.6 °C 30.22in /  1023.2hPa ENE 2.3mph /  3.7km/h 2.3mph /  3.7km/h 83% 0.00in /  0mm WeatherDisplay:10.37 W/m2 CLR
10:08 73.2 °F /  22.9 °C 67.7 °F /  19.8 °C 30.22in /  1023.2hPa ENE 2.3mph /  3.7km/h 2.3mph /  3.7km/h 83% 0.00in /  0mm WeatherDisplay:10.37 W/m2 CLR
10:13 73.4 °F /  23 °C 67.9 °F /  19.9 °C 30.22in /  1023.2hPa ENE 3.0mph /  4.8km/h 3.0mph /  4.8km/h 83% 0.00in /  0mm WeatherDisplay:10.37 W/m2 CLR
10:18 73.7 °F /  23.2 °C 68.2 °F /  20.1 °C 30.22in /  1023.2hPa East 2.3mph /  3.7km/h 2.3mph /  3.7km/h 83% 0.00in /  0mm WeatherDisplay:10.37 W/m2 CLR
10:23 73.8 °F /  23.2 °C 67.9 °F /  19.9 °C 30.22in /  1023.2hPa East 3.5mph /  5.6km/h 3.5mph /  5.6km/h 82% 0.00in /  0mm WeatherDisplay:10.37 W/m2 CLR
10:33 74.1 °F /  23.4 °C 67.9 °F /  19.9 °C 30.22in /  1023.2hPa East 2.3mph /  3.7km/h 2.3mph /  3.7km/h 81% 0.00in /  0mm WeatherDisplay:10.37 W/m2 CLR
10:38 74.1 °F /  23.4 °C 67.9 °F /  19.9 °C 30.22in /  1023.2hPa East 3.0mph /  4.8km/h 3.0mph /  4.8km/h 81% 0.00in /  0mm WeatherDisplay:10.37 W/m2 CLR
10:43 73.9 °F /  23.3 °C 67.7 °F /  19.8 °C 30.22in /  1023.2hPa East 2.3mph /  3.7km/h 2.3mph /  3.7km/h 81% 0.00in /  0mm WeatherDisplay:10.37 W/m2 CLR
10:48 74.1 °F /  23.4 °C 67.9 °F /  19.9 °C 30.22in /  1023.2hPa East 2.0mph /  3.2km/h 2.0mph /  3.2km/h 81% 0.00in /  0mm WeatherDisplay:10.37 W/m2 CLR
10:53 74.3 °F /  23.5 °C 68.0 °F /  20 °C 30.22in /  1023.2hPa East 2.3mph /  3.7km/h 2.3mph /  3.7km/h 81% 0.00in /  0mm WeatherDisplay:10.37 W/m2 CLR
10:58 74.6 °F /  23.7 °C 68.3 °F /  20.2 °C 30.22in /  1023.2hPa East 2.3mph /  3.7km/h 2.3mph /  3.7km/h 81% 0.00in /  0mm WeatherDisplay:10.37 W/m2 CLR
11:03 74.7 °F /  23.7 °C 68.4 °F /  20.2 °C 30.22in /  1023.2hPa SSE 3.5mph /  5.6km/h 3.5mph /  5.6km/h 81% 0.00in /  0mm WeatherDisplay:10.37 W/m2 CLR
11:08 74.9 °F /  23.8 °C 68.6 °F /  20.3 °C 30.22in /  1023.2hPa SW 3.5mph /  5.6km/h 3.5mph /  5.6km/h 81% 0.00in /  0mm WeatherDisplay:10.37 W/m2 CLR
11:13 75.2 °F /  24 °C 68.6 °F /  20.3 °C 30.22in /  1023.2hPa SW 2.3mph /  3.7km/h 2.3mph /  3.7km/h 80% 0.00in /  0mm WeatherDisplay:10.37 W/m2 CLR
11:18 75.5 °F /  24.2 °C 68.5 °F /  20.3 °C 30.22in /  1023.2hPa SW 2.3mph /  3.7km/h 2.3mph /  3.7km/h 79% 0.00in /  0mm WeatherDisplay:10.37 W/m2 CLR
11:23 75.9 °F /  24.4 °C 68.9 °F /  20.5 °C 30.23in /  1023.6hPa NNW 2.3mph /  3.7km/h 2.3mph /  3.7km/h 79% 0.00in /  0mm WeatherDisplay:10.37 W/m2 CLR
11:28 76.0 °F /  24.4 °C 68.6 °F /  20.3 °C 30.23in /  1023.6hPa West 2.3mph /  3.7km/h 2.3mph /  3.7km/h 78% 0.00in /  0mm WeatherDisplay:10.37 W/m2 CLR
11:33 75.9 °F /  24.4 °C 68.9 °F /  20.5 °C 30.22in /  1023.2hPa SW 2.3mph /  3.7km/h 2.3mph /  3.7km/h 79% 0.00in /  0mm WeatherDisplay:10.37 W/m2 CLR
11:38 75.9 °F /  24.4 °C 68.5 °F /  20.3 °C 30.23in /  1023.6hPa WSW 3.5mph /  5.6km/h 3.5mph /  5.6km/h 78% 0.00in /  0mm WeatherDisplay:10.37 W/m2 CLR
11:43 75.8 °F /  24.3 °C 68.4 °F /  20.2 °C 30.23in /  1023.6hPa SW 3.5mph /  5.6km/h 3.5mph /  5.6km/h 78% 0.00in /  0mm WeatherDisplay:10.37 W/m2 CLR
11:48 75.9 °F /  24.4 °C 68.5 °F /  20.3 °C 30.23in /  1023.6hPa WSW 3.5mph /  5.6km/h 3.5mph /  5.6km/h 78% 0.00in /  0mm WeatherDisplay:10.37 W/m2 CLR
11:53 76.0 °F /  24.4 °C 68.6 °F /  20.3 °C 30.23in /  1023.6hPa WSW 3.5mph /  5.6km/h 3.5mph /  5.6km/h 78% 0.00in /  0mm WeatherDisplay:10.37 W/m2 CLR
11:58 76.1 °F /  24.5 °C 67.6 °F /  19.8 °C 30.23in /  1023.6hPa WSW 3.5mph /  5.6km/h 3.5mph /  5.6km/h 75% 0.00in /  0mm WeatherDisplay:10.37 W/m2 CLR
12:08 76.0 °F /  24.4 °C 68.2 °F /  20.1 °C 30.22in /  1023.2hPa WSW 3.0mph /  4.8km/h 3.0mph /  4.8km/h 77% 0.00in /  0mm WeatherDisplay:10.37 W/m2 CLR
12:13 75.9 °F /  24.4 °C 68.5 °F /  20.3 °C 30.22in /  1023.2hPa WSW 3.5mph /  5.6km/h 3.5mph /  5.6km/h 78% 0.00in /  0mm WeatherDisplay:10.37 W/m2 CLR
12:18 76.1 °F /  24.5 °C 68.7 °F /  20.4 °C 30.22in /  1023.2hPa South 4.0mph /  6.4km/h 4.0mph /  6.4km/h 78% 0.00in /  0mm WeatherDisplay:10.37 W/m2 CLR
12:23 76.2 °F /  24.6 °C 68.0 °F /  20 °C 30.22in /  1023.2hPa SW 6.9mph /  11.1km/h 6.9mph /  11.1km/h 76% 0.00in /  0mm WeatherDisplay:10.37 W/m2 CLR
12:28 76.2 °F /  24.6 °C 68.0 °F /  20 °C 30.22in /  1023.2hPa SSW 5.8mph /  9.3km/h 5.8mph /  9.3km/h 76% 0.00in /  0mm WeatherDisplay:10.37 W/m2 CLR
12:33 76.1 °F /  24.5 °C 67.9 °F /  19.9 °C 30.22in /  1023.2hPa West 5.8mph /  9.3km/h 5.8mph /  9.3km/h 76% 0.00in /  0mm WeatherDisplay:10.37 W/m2 CLR
12:38 76.0 °F /  24.4 °C 68.2 °F /  20.1 °C 30.22in /  1023.2hPa SW 3.5mph /  5.6km/h 3.5mph /  5.6km/h 77% 0.00in /  0mm WeatherDisplay:10.37 W/m2 CLR
12:43 76.1 °F /  24.5 °C 67.9 °F /  19.9 °C 30.22in /  1023.2hPa SSW 3.5mph /  5.6km/h 3.5mph /  5.6km/h 76% 0.00in /  0mm WeatherDisplay:10.37 W/m2 SCT
12:48 76.2 °F /  24.6 °C 68.4 °F /  20.2 °C 30.22in /  1023.2hPa South 4.0mph /  6.4km/h 4.0mph /  6.4km/h 77% 0.00in /  0mm WeatherDisplay:10.37 W/m2 SCT
12:53 76.2 °F /  24.6 °C 68.4 °F /  20.2 °C 30.22in /  1023.2hPa SW 3.5mph /  5.6km/h 3.5mph /  5.6km/h 77% 0.00in /  0mm WeatherDisplay:10.37 W/m2 SCT
12:58 76.3 °F /  24.6 °C 68.1 °F /  20.1 °C 30.22in /  1023.2hPa SW 3.5mph /  5.6km/h 3.5mph /  5.6km/h 76% 0.00in /  0mm WeatherDisplay:10.37 W/m2 SCT
13:03 76.4 °F /  24.7 °C 68.2 °F /  20.1 °C 30.22in /  1023.2hPa SSW 5.0mph /  8km/h 5.0mph /  8km/h 76% 0.00in /  0mm WeatherDisplay:10.37 W/m2 SCT
13:08 76.6 °F /  24.8 °C 68.0 °F /  20 °C 30.22in /  1023.2hPa SW 4.6mph /  7.4km/h 4.6mph /  7.4km/h 75% 0.00in /  0mm WeatherDisplay:10.37 W/m2 SCT
13:13 76.4 °F /  24.7 °C 68.2 °F /  20.1 °C 30.22in /  1023.2hPa SSW 3.5mph /  5.6km/h 3.5mph /  5.6km/h 76% 0.00in /  0mm WeatherDisplay:10.37 W/m2 BKN
13:18 76.6 °F /  24.8 °C 68.8 °F /  20.4 °C 30.22in /  1023.2hPa WSW 5.8mph /  9.3km/h 5.8mph /  9.3km/h 77% 0.00in /  0mm WeatherDisplay:10.37 W/m2 BKN
13:23 76.8 °F /  24.9 °C 68.6 °F /  20.3 °C 30.22in /  1023.2hPa SW 8.1mph /  13km/h 8.1mph /  13km/h 76% 0.00in /  0mm WeatherDisplay:10.37 W/m2 BKN
13:28 76.9 °F /  24.9 °C 68.7 °F /  20.4 °C 30.21in /  1022.9hPa SW 4.6mph /  7.4km/h 4.6mph /  7.4km/h 76% 0.00in /  0mm WeatherDisplay:10.37 W/m2 BKN
13:33 77.1 °F /  25.1 °C 68.5 °F /  20.3 °C 30.22in /  1023.2hPa WSW 8.1mph /  13km/h 8.1mph /  13km/h 75% 0.00in /  0mm WeatherDisplay:10.37 W/m2 SCT
13:38 77.0 °F /  25 °C 68.4 °F /  20.2 °C 30.21in /  1022.9hPa WSW 4.6mph /  7.4km/h 4.6mph /  7.4km/h 75% 0.00in /  0mm WeatherDisplay:10.37 W/m2 SCT
13:43 77.1 °F /  25.1 °C 68.9 °F /  20.5 °C 30.21in /  1022.9hPa SSW 8.1mph /  13km/h 8.1mph /  13km/h 76% 0.00in /  0mm WeatherDisplay:10.37 W/m2 BKN
13:48 76.8 °F /  24.9 °C 69.0 °F /  20.6 °C 30.21in /  1022.9hPa SW 11.5mph /  18.5km/h 11.5mph /  18.5km/h 77% 0.00in /  0mm WeatherDisplay:10.37 W/m2 BKN
13:53 76.2 °F /  24.6 °C 68.8 °F /  20.4 °C 30.22in /  1023.2hPa WSW 6.9mph /  11.1km/h 6.9mph /  11.1km/h 78% 0.00in /  0mm WeatherDisplay:10.37 W/m2 BKN
13:58 75.5 °F /  24.2 °C 68.1 °F /  20.1 °C 30.22in /  1023.2hPa SW 8.1mph /  13km/h 8.1mph /  13km/h 78% 0.00in /  0mm WeatherDisplay:10.37 W/m2 BKN
14:03 74.9 °F /  23.8 °C 68.3 °F /  20.2 °C 30.22in /  1023.2hPa WSW 9.2mph /  14.8km/h 9.2mph /  14.8km/h 80% 0.00in /  0mm WeatherDisplay:10.37 W/m2 BKN
14:08 74.4 °F /  23.6 °C 68.1 °F /  20.1 °C 30.22in /  1023.2hPa SW 8.1mph /  13km/h 8.1mph /  13km/h 81% 0.00in /  0mm WeatherDisplay:10.37 W/m2 BKN
14:13 73.9 °F /  23.3 °C 68.0 °F /  20 °C 30.22in /  1023.2hPa SW 8.1mph /  13km/h 8.1mph /  13km/h 82% 0.00in /  0mm WeatherDisplay:10.37 W/m2 BKN
14:18 73.1 °F /  22.8 °C 67.6 °F /  19.8 °C 30.22in /  1023.2hPa WSW 11.5mph /  18.5km/h 11.5mph /  18.5km/h 83% 0.00in /  0mm WeatherDisplay:10.37 W/m2 BKN
14:23 72.4 °F /  22.4 °C 67.3 °F /  19.6 °C 30.22in /  1023.2hPa WSW 11.5mph /  18.5km/h 11.5mph /  18.5km/h 84% 0.00in /  0mm WeatherDisplay:10.37 W/m2 BKN
14:28 71.9 °F /  22.2 °C 67.4 °F /  19.7 °C 30.22in /  1023.2hPa SSW 8.1mph /  13km/h 8.1mph /  13km/h 86% 0.00in /  0mm WeatherDisplay:10.37 W/m2 BKN
Smyth Weather
Compliments of Weather Underground - 2.5 mb